createdAt,value
2019-03-30T00:01:35.419Z,6.20
2019-03-30T00:03:39.282Z,6.20
2019-03-30T00:05:43.127Z,6.20
2019-03-30T00:07:47.199Z,6.10
2019-03-30T00:09:51.215Z,6.00
2019-03-30T00:11:57.745Z,6.00
2019-03-30T00:14:00.631Z,6.00
2019-03-30T00:16:04.442Z,5.90
2019-03-30T00:18:08.349Z,5.90
2019-03-30T00:20:12.345Z,5.90
2019-03-30T00:22:16.199Z,5.90
2019-03-30T00:24:20.049Z,5.80
2019-03-30T00:26:23.925Z,5.80
2019-03-30T00:28:27.794Z,5.80
2019-03-30T00:30:31.662Z,5.80
2019-03-30T00:32:35.565Z,5.70
2019-03-30T00:34:39.453Z,5.80
2019-03-30T00:36:43.334Z,5.70
2019-03-30T00:38:47.305Z,5.70
2019-03-30T00:40:51.155Z,5.70
2019-03-30T00:42:55.030Z,5.70
2019-03-30T00:44:59.075Z,5.60
2019-03-30T00:47:02.927Z,5.60
2019-03-30T00:49:06.786Z,5.60
2019-03-30T00:51:10.696Z,5.60
2019-03-30T00:53:14.556Z,5.60
2019-03-30T00:55:18.401Z,5.60
2019-03-30T00:57:22.303Z,5.50
2019-03-30T00:59:26.187Z,5.50
2019-03-30T01:01:30.028Z,5.60
2019-03-30T01:03:33.912Z,5.60
2019-03-30T01:05:37.822Z,5.60
2019-03-30T01:07:41.687Z,5.50
2019-03-30T01:09:45.878Z,5.50
2019-03-30T01:11:49.759Z,5.50
2019-03-30T01:13:53.575Z,5.40
2019-03-30T01:15:57.481Z,5.40
2019-03-30T01:18:01.367Z,5.40
2019-03-30T01:20:07.194Z,5.30
2019-03-30T01:22:11.103Z,5.30
2019-03-30T01:24:14.953Z,5.30
2019-03-30T01:26:18.802Z,5.20
2019-03-30T01:28:22.688Z,5.20
2019-03-30T01:30:26.531Z,5.20
2019-03-30T01:32:30.424Z,5.20
2019-03-30T01:34:34.384Z,5.20
2019-03-30T01:36:38.219Z,5.20
2019-03-30T01:38:42.049Z,5.20
2019-03-30T01:40:46.006Z,5.20
2019-03-30T01:42:49.763Z,5.20
2019-03-30T01:44:53.577Z,5.10
2019-03-30T01:46:57.519Z,5.10
2019-03-30T01:49:01.355Z,5.10
2019-03-30T01:51:05.232Z,5.10
2019-03-30T01:53:09.153Z,5.10
2019-03-30T01:55:13.100Z,5.00
2019-03-30T01:57:16.973Z,5.00
2019-03-30T01:59:20.875Z,5.00
2019-03-30T02:01:27.924Z,4.90
2019-03-30T02:03:31.813Z,4.90
2019-03-30T02:05:35.699Z,4.80
2019-03-30T02:07:39.502Z,4.80
2019-03-30T02:09:43.280Z,4.90
2019-03-30T02:11:47.440Z,4.90
2019-03-30T02:13:51.350Z,4.80
2019-03-30T02:15:55.243Z,4.90
2019-03-30T02:17:59.123Z,4.80
2019-03-30T02:20:03.307Z,4.80
2019-03-30T02:22:07.206Z,4.80
2019-03-30T02:24:11.070Z,4.80
2019-03-30T02:26:14.965Z,4.80
2019-03-30T02:28:18.818Z,4.70
2019-03-30T02:30:22.757Z,4.70
2019-03-30T02:32:26.588Z,4.70
2019-03-30T02:34:30.552Z,4.70
2019-03-30T02:36:34.475Z,4.60
2019-03-30T02:38:38.314Z,4.50
2019-03-30T02:40:42.146Z,4.50
2019-03-30T02:42:46.065Z,4.50
2019-03-30T02:44:49.958Z,4.50
2019-03-30T02:46:53.838Z,4.50
2019-03-30T02:48:57.741Z,4.60
2019-03-30T02:51:01.634Z,4.60
2019-03-30T02:53:05.510Z,4.60
2019-03-30T02:55:12.537Z,4.60
2019-03-30T02:57:14.935Z,4.60
2019-03-30T02:59:18.925Z,4.60
2019-03-30T03:01:22.865Z,4.50
2019-03-30T03:03:26.694Z,4.60
2019-03-30T03:05:30.554Z,4.50
2019-03-30T03:07:34.463Z,4.50
2019-03-30T03:09:38.335Z,4.60
2019-03-30T03:11:42.194Z,4.50
2019-03-30T03:13:46.082Z,4.50
2019-03-30T03:15:49.941Z,4.40
2019-03-30T03:17:53.833Z,4.40
2019-03-30T03:19:57.893Z,4.40
2019-03-30T03:22:01.758Z,4.40
2019-03-30T03:24:25.206Z,4.40
2019-03-30T03:26:29.098Z,4.30
2019-03-30T03:28:32.952Z,4.30
2019-03-30T03:30:36.784Z,4.30
2019-03-30T03:32:40.672Z,4.30
2019-03-30T03:34:44.494Z,4.30
2019-03-30T03:36:48.550Z,4.30
2019-03-30T03:38:52.565Z,4.20
2019-03-30T03:40:56.552Z,4.20
2019-03-30T03:43:00.593Z,4.20
2019-03-30T03:45:06.952Z,4.20
2019-03-30T03:47:10.786Z,4.20
2019-03-30T03:49:14.646Z,4.20
2019-03-30T03:51:26.240Z,4.20
2019-03-30T03:53:25.676Z,4.10
2019-03-30T03:55:30.451Z,4.10
2019-03-30T03:57:37.227Z,4.10
2019-03-30T03:59:41.725Z,4.10
2019-03-30T04:01:47.651Z,4.10
2019-03-30T04:03:53.433Z,4.00
2019-03-30T04:05:59.238Z,3.90
2019-03-30T04:08:06.175Z,3.90
2019-03-30T04:10:10.378Z,4.00
2019-03-30T04:12:16.016Z,3.90
2019-03-30T04:14:22.946Z,3.80
2019-03-30T04:16:27.039Z,3.80
2019-03-30T04:18:30.886Z,3.80
2019-03-30T04:20:34.764Z,3.80
2019-03-30T04:22:38.658Z,3.80
2019-03-30T04:24:42.533Z,3.70
2019-03-30T04:26:46.390Z,3.70
2019-03-30T04:28:50.405Z,3.70
2019-03-30T04:30:54.370Z,3.70
2019-03-30T04:32:58.294Z,3.70
2019-03-30T04:35:02.709Z,3.60
2019-03-30T04:37:06.592Z,3.70
2019-03-30T04:39:10.459Z,3.60
2019-03-30T04:41:14.376Z,3.60
2019-03-30T04:43:18.360Z,3.50
2019-03-30T04:45:22.260Z,3.60
2019-03-30T04:47:26.192Z,3.60
2019-03-30T04:49:30.016Z,3.60
2019-03-30T04:51:33.894Z,3.60
2019-03-30T04:53:37.796Z,3.60
2019-03-30T04:55:41.712Z,3.50
2019-03-30T04:57:49.748Z,3.60
2019-03-30T04:59:51.110Z,3.60
2019-03-30T05:01:54.968Z,3.60
2019-03-30T05:03:58.819Z,3.60
2019-03-30T05:06:03.158Z,3.60
2019-03-30T05:08:07.068Z,3.50
2019-03-30T05:10:11.037Z,3.60
2019-03-30T05:12:15.031Z,3.60
2019-03-30T05:14:18.945Z,3.60
2019-03-30T05:16:22.816Z,3.60
2019-03-30T05:18:26.751Z,3.60
2019-03-30T05:20:30.542Z,3.70
2019-03-30T05:22:34.422Z,3.80
2019-03-30T05:24:38.296Z,3.70
2019-03-30T05:26:42.203Z,3.70
2019-03-30T05:28:46.078Z,3.60
2019-03-30T05:30:50.018Z,3.70
2019-03-30T05:33:04.965Z,3.60
2019-03-30T05:34:59.437Z,3.60
2019-03-30T05:37:03.647Z,3.50
2019-03-30T05:39:07.477Z,3.60
2019-03-30T05:41:11.341Z,3.60
2019-03-30T05:43:15.288Z,3.70
2019-03-30T05:45:19.238Z,3.80
2019-03-30T05:47:23.070Z,3.80
2019-03-30T05:49:27.150Z,3.80
2019-03-30T05:51:30.984Z,3.80
2019-03-30T05:53:34.866Z,3.90
2019-03-30T05:55:38.792Z,3.80
2019-03-30T05:57:42.650Z,3.90
2019-03-30T05:59:46.519Z,4.00
2019-03-30T06:01:50.412Z,4.00
2019-03-30T06:03:54.229Z,4.00
2019-03-30T06:05:58.070Z,4.10
2019-03-30T06:08:01.944Z,4.10
2019-03-30T06:10:06.879Z,4.20
2019-03-30T06:12:10.755Z,4.30
2019-03-30T06:14:14.592Z,4.30
2019-03-30T06:16:18.437Z,4.40
2019-03-30T06:18:22.346Z,4.40
2019-03-30T06:20:26.257Z,4.40
2019-03-30T06:22:40.304Z,4.50
2019-03-30T06:24:35.690Z,4.50
2019-03-30T06:26:39.609Z,4.50
2019-03-30T06:28:43.492Z,4.60
2019-03-30T06:30:47.362Z,4.70
2019-03-30T06:32:51.217Z,4.80
2019-03-30T06:34:55.116Z,4.80
2019-03-30T06:36:58.974Z,4.80
2019-03-30T06:39:04.573Z,4.80
2019-03-30T06:41:08.577Z,4.90
2019-03-30T06:43:12.503Z,5.00
2019-03-30T06:45:16.604Z,5.10
2019-03-30T06:47:20.397Z,5.20
2019-03-30T06:49:24.282Z,5.20
2019-03-30T06:51:28.129Z,5.30
2019-03-30T06:53:31.915Z,5.40
2019-03-30T06:55:35.818Z,5.50
2019-03-30T06:57:39.711Z,5.60
2019-03-30T06:59:43.922Z,5.60
2019-03-30T07:01:47.861Z,5.70
2019-03-30T07:03:51.741Z,5.80
2019-03-30T07:05:56.945Z,5.80
2019-03-30T07:08:02.454Z,5.90
2019-03-30T07:10:06.674Z,6.00
2019-03-30T07:12:10.552Z,6.10
2019-03-30T07:14:14.427Z,6.10
2019-03-30T07:16:18.387Z,6.20
2019-03-30T07:18:22.333Z,6.20
2019-03-30T07:20:27.863Z,6.30
2019-03-30T07:22:31.758Z,6.40
2019-03-30T07:24:35.563Z,6.50
2019-03-30T07:26:39.481Z,6.50
2019-03-30T07:28:46.876Z,6.60
2019-03-30T07:30:49.247Z,6.70
2019-03-30T07:32:53.403Z,6.70
2019-03-30T07:34:57.324Z,6.90
2019-03-30T07:37:01.186Z,6.90
2019-03-30T07:39:06.110Z,7.00
2019-03-30T07:41:10.063Z,7.10
2019-03-30T07:43:13.927Z,7.20
2019-03-30T07:45:19.316Z,7.30
2019-03-30T07:47:23.268Z,7.40
2019-03-30T07:49:27.183Z,7.50
2019-03-30T07:51:33.435Z,7.70
2019-03-30T07:53:44.353Z,7.80
2019-03-30T07:55:42.124Z,7.90
2019-03-30T07:57:46.007Z,7.90
2019-03-30T07:59:51.410Z,8.00
2019-03-30T08:01:55.323Z,8.10
2019-03-30T08:04:01.530Z,8.20
2019-03-30T08:06:05.383Z,8.30
2019-03-30T08:08:12.157Z,8.30
2019-03-30T08:10:16.150Z,8.30
2019-03-30T08:12:21.655Z,8.30
2019-03-30T08:14:25.585Z,8.40
2019-03-30T08:16:29.463Z,8.50
2019-03-30T08:18:33.345Z,8.70
2019-03-30T08:20:37.206Z,8.80
2019-03-30T08:22:44.135Z,8.80
2019-03-30T08:24:48.015Z,9.00
2019-03-30T08:26:51.921Z,9.20
2019-03-30T08:28:55.747Z,9.20
2019-03-30T08:30:59.615Z,9.20
2019-03-30T08:33:03.520Z,9.40
2019-03-30T08:35:07.645Z,9.60
2019-03-30T08:37:11.538Z,9.80
2019-03-30T08:39:15.398Z,9.70
2019-03-30T08:41:19.318Z,9.80
2019-03-30T08:43:23.261Z,9.90
2019-03-30T08:45:27.470Z,10.00
2019-03-30T08:47:31.393Z,10.20
2019-03-30T08:49:35.303Z,10.30
2019-03-30T08:51:39.175Z,10.40
2019-03-30T08:53:53.954Z,10.50
2019-03-30T08:55:48.625Z,10.50
2019-03-30T08:57:52.409Z,10.60
2019-03-30T08:59:56.290Z,10.70
2019-03-30T09:02:00.206Z,11.10
2019-03-30T09:04:04.137Z,11.00
2019-03-30T09:06:08.047Z,10.90
2019-03-30T09:08:12.069Z,10.90
2019-03-30T09:10:15.910Z,11.00
2019-03-30T09:12:19.800Z,11.10
2019-03-30T09:14:23.693Z,11.20
2019-03-30T09:16:27.537Z,11.30
2019-03-30T09:18:31.427Z,11.50
2019-03-30T09:20:35.393Z,11.50
2019-03-30T09:22:39.262Z,11.80
2019-03-30T09:24:43.140Z,11.80
2019-03-30T09:26:47.030Z,11.80
2019-03-30T09:28:50.894Z,11.70
2019-03-30T09:30:54.736Z,11.80
2019-03-30T09:32:58.638Z,12.00
2019-03-30T09:35:02.511Z,11.90
2019-03-30T09:37:06.325Z,12.10
2019-03-30T09:39:10.643Z,12.30
2019-03-30T09:41:14.482Z,12.30
2019-03-30T09:43:18.319Z,12.40
2019-03-30T09:45:22.249Z,12.50
2019-03-30T09:47:26.861Z,12.30
2019-03-30T09:49:30.856Z,12.30
2019-03-30T09:51:35.002Z,12.60
2019-03-30T09:53:38.953Z,12.60
2019-03-30T09:55:42.934Z,12.80
2019-03-30T09:57:46.890Z,12.70
2019-03-30T09:59:51.028Z,12.70
2019-03-30T10:01:54.927Z,12.90
2019-03-30T10:03:59.042Z,12.90
2019-03-30T10:06:03.382Z,13.10
2019-03-30T10:08:07.720Z,13.40
2019-03-30T10:10:12.758Z,13.40
2019-03-30T10:12:16.650Z,13.50
2019-03-30T10:14:20.776Z,13.60
2019-03-30T10:16:24.880Z,13.60
2019-03-30T10:18:28.957Z,13.50
2019-03-30T10:20:33.066Z,13.60
2019-03-30T10:22:37.274Z,13.60
2019-03-30T10:24:41.246Z,13.80
2019-03-30T10:26:45.224Z,13.80
2019-03-30T10:28:49.747Z,14.00
2019-03-30T10:30:54.383Z,14.20
2019-03-30T10:32:58.356Z,14.10
2019-03-30T10:35:02.471Z,14.40
2019-03-30T10:37:06.505Z,14.40
2019-03-30T10:39:11.026Z,14.50
2019-03-30T10:41:15.042Z,14.40
2019-03-30T10:43:18.892Z,14.80
2019-03-30T10:45:23.032Z,14.90
2019-03-30T10:47:27.305Z,15.00
2019-03-30T10:49:31.298Z,15.00
2019-03-30T10:51:35.247Z,15.30
2019-03-30T10:53:39.683Z,15.30
2019-03-30T10:55:43.802Z,15.60
2019-03-30T10:57:47.974Z,15.50
2019-03-30T10:59:52.224Z,15.70
2019-03-30T11:01:56.483Z,15.80
2019-03-30T11:04:00.452Z,15.70
2019-03-30T11:06:04.816Z,16.00
2019-03-30T11:08:08.857Z,16.30
2019-03-30T11:10:13.051Z,16.20
2019-03-30T11:12:17.276Z,16.20
2019-03-30T11:14:21.337Z,16.30
2019-03-30T11:16:25.282Z,16.40
2019-03-30T11:18:29.267Z,16.50
2019-03-30T11:20:33.184Z,16.80
2019-03-30T11:22:37.105Z,17.00
2019-03-30T11:24:41.373Z,16.90
2019-03-30T11:26:45.297Z,17.00
2019-03-30T11:28:49.202Z,17.20
2019-03-30T11:30:53.156Z,17.30
2019-03-30T11:32:57.004Z,16.90
2019-03-30T11:35:00.909Z,17.10
2019-03-30T11:37:05.224Z,17.00
2019-03-30T11:39:09.067Z,17.40
2019-03-30T11:41:12.943Z,17.50
2019-03-30T11:43:16.901Z,17.50
2019-03-30T11:45:20.733Z,17.60
2019-03-30T11:47:24.593Z,17.70
2019-03-30T11:49:28.451Z,17.80
2019-03-30T11:51:32.365Z,18.40
2019-03-30T11:53:36.236Z,18.50
2019-03-30T11:55:40.173Z,18.50
2019-03-30T11:57:44.036Z,18.50
2019-03-30T11:59:47.966Z,18.30
2019-03-30T12:01:51.942Z,18.50
2019-03-30T12:03:55.859Z,18.70
2019-03-30T12:05:59.718Z,18.60
2019-03-30T12:08:03.654Z,19.00
2019-03-30T12:10:07.704Z,19.00
2019-03-30T12:12:11.614Z,19.20
2019-03-30T12:14:15.612Z,19.40
2019-03-30T12:16:19.542Z,19.50
2019-03-30T12:18:23.387Z,19.60
2019-03-30T12:20:27.306Z,19.50
2019-03-30T12:22:31.146Z,19.50
2019-03-30T12:24:34.963Z,19.80
2019-03-30T12:26:38.995Z,19.90
2019-03-30T12:28:42.851Z,20.00
2019-03-30T12:30:46.687Z,20.00
2019-03-30T12:32:50.586Z,20.20
2019-03-30T12:34:54.458Z,20.20
2019-03-30T12:36:58.319Z,20.50
2019-03-30T12:39:02.254Z,20.40
2019-03-30T12:41:07.560Z,20.50
2019-03-30T12:43:11.405Z,20.80
2019-03-30T12:45:15.489Z,20.70
2019-03-30T12:47:19.331Z,20.80
2019-03-30T12:49:23.194Z,20.90
2019-03-30T12:51:27.097Z,20.90
2019-03-30T12:53:30.967Z,21.10
2019-03-30T12:55:48.329Z,21.20
2019-03-30T12:57:40.424Z,21.40
2019-03-30T12:59:44.386Z,21.40
2019-03-30T13:01:48.225Z,21.60
2019-03-30T13:03:52.159Z,21.70
2019-03-30T13:05:56.050Z,21.90
2019-03-30T13:07:59.894Z,21.90
2019-03-30T13:10:06.174Z,22.30
2019-03-30T13:12:10.028Z,22.50
2019-03-30T13:14:13.925Z,22.50
2019-03-30T13:16:18.792Z,22.60
2019-03-30T13:18:22.806Z,22.80
2019-03-30T13:20:26.719Z,22.80
2019-03-30T13:22:30.695Z,22.80
2019-03-30T13:24:34.593Z,22.90
2019-03-30T13:26:38.480Z,23.00
2019-03-30T13:28:42.404Z,22.80
2019-03-30T13:30:46.263Z,22.60
2019-03-30T13:32:53.264Z,22.50
2019-03-30T13:34:56.296Z,22.50
2019-03-30T13:37:00.135Z,22.70
2019-03-30T13:39:04.221Z,22.70
2019-03-30T13:41:08.277Z,22.90
2019-03-30T13:43:12.116Z,23.10
2019-03-30T13:45:16.129Z,23.20
2019-03-30T13:47:20.058Z,22.80
2019-03-30T13:49:23.882Z,22.90
2019-03-30T13:51:27.785Z,22.60
2019-03-30T13:53:31.806Z,23.00
2019-03-30T13:55:35.670Z,23.40
2019-03-30T13:57:39.559Z,23.60
2019-03-30T13:59:43.427Z,23.70
2019-03-30T14:01:47.370Z,23.90
2019-03-30T14:03:51.229Z,24.00
2019-03-30T14:05:55.142Z,24.10
2019-03-30T14:07:58.999Z,24.20
2019-03-30T14:10:02.848Z,24.00
2019-03-30T14:12:06.773Z,24.00
2019-03-30T14:14:10.639Z,24.20
2019-03-30T14:16:14.519Z,24.10
2019-03-30T14:18:18.735Z,24.20
2019-03-30T14:20:22.607Z,24.30
2019-03-30T14:22:26.450Z,24.20
2019-03-30T14:24:30.353Z,24.20
2019-03-30T14:26:34.147Z,24.10
2019-03-30T14:28:38.115Z,24.20
2019-03-30T14:30:42.338Z,24.10
2019-03-30T14:32:46.212Z,23.90
2019-03-30T14:34:50.043Z,24.10
2019-03-30T14:36:53.967Z,24.10
2019-03-30T14:38:57.827Z,24.10
2019-03-30T14:41:03.818Z,24.10
2019-03-30T14:43:07.827Z,24.30
2019-03-30T14:45:11.904Z,24.40
2019-03-30T14:47:15.781Z,24.30
2019-03-30T14:49:19.622Z,24.30
2019-03-30T14:51:23.506Z,24.00
2019-03-30T14:53:27.370Z,24.20
2019-03-30T14:55:31.232Z,24.50
2019-03-30T14:57:35.129Z,24.70
2019-03-30T14:59:39.030Z,24.30
2019-03-30T15:01:42.837Z,24.40
2019-03-30T15:03:46.782Z,24.30
2019-03-30T15:05:50.630Z,24.50
2019-03-30T15:07:54.495Z,24.60
2019-03-30T15:09:58.398Z,24.60
2019-03-30T15:12:02.263Z,24.50
2019-03-30T15:14:06.400Z,24.20
2019-03-30T15:16:10.276Z,24.10
2019-03-30T15:18:14.121Z,23.90
2019-03-30T15:20:18.138Z,24.00
2019-03-30T15:22:21.990Z,23.90
2019-03-30T15:24:25.828Z,23.60
2019-03-30T15:26:29.775Z,23.60
2019-03-30T15:28:33.620Z,23.40
2019-03-30T15:30:37.473Z,23.30
2019-03-30T15:32:41.391Z,23.20
2019-03-30T15:34:45.228Z,23.20
2019-03-30T15:36:49.071Z,23.40
2019-03-30T15:38:52.951Z,23.30
2019-03-30T15:40:56.856Z,23.20
2019-03-30T15:43:00.780Z,23.20
2019-03-30T15:45:09.127Z,23.10
2019-03-30T15:47:13.008Z,22.70
2019-03-30T15:49:16.832Z,22.40
2019-03-30T15:51:20.751Z,22.30
2019-03-30T15:53:24.610Z,22.00
2019-03-30T15:55:28.415Z,22.00
2019-03-30T15:57:32.397Z,21.90
2019-03-30T15:59:36.230Z,21.50
2019-03-30T16:01:40.101Z,21.30
2019-03-30T16:03:44.128Z,21.00
2019-03-30T16:05:48.023Z,21.00
2019-03-30T16:07:51.882Z,20.80
2019-03-30T16:09:55.781Z,20.60
2019-03-30T16:11:59.656Z,20.50
2019-03-30T16:14:03.590Z,20.50
2019-03-30T16:16:07.447Z,20.50
2019-03-30T16:18:11.321Z,20.40
2019-03-30T16:20:15.677Z,20.30
2019-03-30T16:22:19.546Z,20.20
2019-03-30T16:24:23.462Z,20.00
2019-03-30T16:26:40.901Z,19.90
2019-03-30T16:28:32.848Z,19.80
2019-03-30T16:30:36.857Z,19.60
2019-03-30T16:32:40.715Z,19.50
2019-03-30T16:34:44.578Z,19.40
2019-03-30T16:36:48.590Z,19.30
2019-03-30T16:38:52.410Z,19.30
2019-03-30T16:40:56.321Z,19.30
2019-03-30T16:43:00.214Z,19.10
2019-03-30T16:45:05.263Z,19.00
2019-03-30T16:47:10.119Z,18.90
2019-03-30T16:49:14.065Z,18.80
2019-03-30T16:51:17.909Z,18.70
2019-03-30T16:53:21.703Z,18.60
2019-03-30T16:55:25.628Z,18.50
2019-03-30T16:57:42.517Z,18.50
2019-03-30T16:59:34.971Z,18.40
2019-03-30T17:01:38.958Z,18.30
2019-03-30T17:03:42.912Z,18.20
2019-03-30T17:05:46.712Z,18.00
2019-03-30T17:07:50.555Z,17.90
2019-03-30T17:09:54.433Z,17.90
2019-03-30T17:11:58.242Z,17.90
2019-03-30T17:14:02.159Z,17.80
2019-03-30T17:16:06.066Z,17.80
2019-03-30T17:18:09.931Z,17.80
2019-03-30T17:20:14.078Z,17.60
2019-03-30T17:22:17.992Z,17.50
2019-03-30T17:24:21.856Z,17.50
2019-03-30T17:26:25.738Z,17.30
2019-03-30T17:28:29.625Z,17.30
2019-03-30T17:30:33.489Z,17.10
2019-03-30T17:32:37.335Z,17.10
2019-03-30T17:34:41.247Z,17.20
2019-03-30T17:36:45.106Z,17.10
2019-03-30T17:38:48.936Z,17.00
2019-03-30T17:40:52.837Z,17.00
2019-03-30T17:42:56.682Z,16.90
2019-03-30T17:45:01.018Z,16.70
2019-03-30T17:47:04.871Z,16.60
2019-03-30T17:49:08.704Z,16.60
2019-03-30T17:51:12.639Z,16.50
2019-03-30T17:53:16.437Z,16.50
2019-03-30T17:55:33.147Z,16.50
2019-03-30T17:57:25.969Z,16.40
2019-03-30T17:59:29.811Z,16.40
2019-03-30T18:01:33.686Z,16.40
2019-03-30T18:03:37.646Z,16.30
2019-03-30T18:05:41.529Z,16.30
2019-03-30T18:07:45.430Z,16.10
2019-03-30T18:09:49.312Z,16.00
2019-03-30T18:11:53.137Z,15.90
2019-03-30T18:13:57.077Z,15.80
2019-03-30T18:16:00.955Z,15.60
2019-03-30T18:18:04.809Z,15.60
2019-03-30T18:20:09.188Z,15.50
2019-03-30T18:22:13.112Z,15.50
2019-03-30T18:24:16.955Z,15.40
2019-03-30T18:26:20.805Z,15.30
2019-03-30T18:28:27.451Z,15.30
2019-03-30T18:30:40.582Z,15.30
2019-03-30T18:32:44.446Z,15.30
2019-03-30T18:34:48.846Z,15.10
2019-03-30T18:36:53.145Z,14.90
2019-03-30T18:39:09.550Z,14.80
2019-03-30T18:41:04.394Z,14.70
2019-03-30T18:43:08.288Z,14.60
2019-03-30T18:45:15.073Z,14.60
2019-03-30T18:47:18.971Z,14.50
2019-03-30T18:49:22.845Z,14.50
2019-03-30T18:51:27.982Z,14.50
2019-03-30T18:53:32.508Z,14.40
2019-03-30T18:55:36.392Z,14.40
2019-03-30T18:57:40.298Z,14.30
2019-03-30T18:59:44.209Z,14.20
2019-03-30T19:01:48.049Z,14.10
2019-03-30T19:03:51.943Z,14.10
2019-03-30T19:05:55.873Z,14.10
2019-03-30T19:07:59.719Z,14.10
2019-03-30T19:10:03.806Z,14.00
2019-03-30T19:12:07.697Z,14.00
2019-03-30T19:14:17.258Z,14.00
2019-03-30T19:16:21.244Z,13.90
2019-03-30T19:18:25.161Z,13.90
2019-03-30T19:20:29.096Z,13.90
2019-03-30T19:22:33.000Z,13.80
2019-03-30T19:24:36.890Z,13.80
2019-03-30T19:26:40.763Z,13.70
2019-03-30T19:28:56.327Z,13.70
2019-03-30T19:30:52.662Z,13.70
2019-03-30T19:32:56.485Z,13.60
2019-03-30T19:35:00.360Z,13.50
2019-03-30T19:37:04.591Z,13.40
2019-03-30T19:39:09.439Z,13.30
2019-03-30T19:41:13.324Z,13.30
2019-03-30T19:43:17.446Z,13.30
2019-03-30T19:45:21.338Z,13.20
2019-03-30T19:47:25.194Z,13.10
2019-03-30T19:49:29.287Z,13.10
2019-03-30T19:51:33.224Z,13.00
2019-03-30T19:53:37.065Z,13.00
2019-03-30T19:55:41.128Z,13.00
2019-03-30T19:57:44.978Z,13.00
2019-03-30T19:59:48.854Z,12.90
2019-03-30T20:01:52.710Z,12.90
2019-03-30T20:03:56.562Z,12.90
2019-03-30T20:06:00.432Z,12.80
2019-03-30T20:08:12.075Z,12.70
2019-03-30T20:10:10.237Z,12.60
2019-03-30T20:12:14.309Z,12.60
2019-03-30T20:14:18.341Z,12.60
2019-03-30T20:16:22.274Z,12.60
2019-03-30T20:18:26.332Z,12.50
2019-03-30T20:20:30.250Z,12.50
2019-03-30T20:22:34.168Z,12.60
2019-03-30T20:24:38.037Z,12.60
2019-03-30T20:26:41.889Z,12.50
2019-03-30T20:28:45.830Z,12.50
2019-03-30T20:30:49.673Z,12.60
2019-03-30T20:32:53.529Z,12.50
2019-03-30T20:34:57.398Z,12.50
2019-03-30T20:37:01.279Z,12.50
2019-03-30T20:39:08.345Z,12.50
2019-03-30T20:41:12.388Z,12.40
2019-03-30T20:43:16.226Z,12.30
2019-03-30T20:45:20.071Z,12.30
2019-03-30T20:47:24.003Z,12.20
2019-03-30T20:49:27.829Z,12.10
2019-03-30T20:51:31.726Z,12.10
2019-03-30T20:53:35.628Z,12.00
2019-03-30T20:55:39.434Z,12.00
2019-03-30T20:57:43.350Z,12.00
2019-03-30T20:59:47.252Z,11.90
2019-03-30T21:01:51.113Z,11.90
2019-03-30T21:03:54.946Z,11.80
2019-03-30T21:05:58.840Z,11.80
2019-03-30T21:08:02.708Z,11.80
2019-03-30T21:10:08.045Z,11.80
2019-03-30T21:12:11.920Z,11.70
2019-03-30T21:14:15.798Z,11.80
2019-03-30T21:16:19.619Z,11.70
2019-03-30T21:18:23.578Z,11.80
2019-03-30T21:20:27.446Z,11.70
2019-03-30T21:22:31.291Z,11.70
2019-03-30T21:24:35.177Z,11.70
2019-03-30T21:26:38.944Z,11.70
2019-03-30T21:28:42.866Z,11.60
2019-03-30T21:30:46.800Z,11.60
2019-03-30T21:32:50.747Z,11.60
2019-03-30T21:34:54.609Z,11.70
2019-03-30T21:36:58.476Z,11.70
2019-03-30T21:39:02.339Z,11.60
2019-03-30T21:41:06.182Z,11.60
2019-03-30T21:43:10.095Z,11.70
2019-03-30T21:45:14.045Z,11.60
2019-03-30T21:47:17.907Z,11.60
2019-03-30T21:49:22.170Z,11.60
2019-03-30T21:51:26.026Z,11.60
2019-03-30T21:53:29.882Z,11.50
2019-03-30T21:55:33.774Z,11.40
2019-03-30T21:57:37.687Z,11.50
2019-03-30T21:59:41.558Z,11.40
2019-03-30T22:01:45.423Z,11.50
2019-03-30T22:03:49.359Z,11.60
2019-03-30T22:05:53.256Z,11.50
2019-03-30T22:07:58.073Z,11.50
2019-03-30T22:10:02.365Z,11.40
2019-03-30T22:12:06.201Z,11.40
2019-03-30T22:14:10.087Z,11.40
2019-03-30T22:16:14.010Z,11.30
2019-03-30T22:18:17.909Z,11.30
2019-03-30T22:20:21.807Z,11.20
2019-03-30T22:22:25.695Z,11.30
2019-03-30T22:24:29.522Z,11.20
2019-03-30T22:26:33.383Z,11.30
2019-03-30T22:28:37.262Z,11.20
2019-03-30T22:30:41.274Z,11.10
2019-03-30T22:32:47.483Z,11.10
2019-03-30T22:34:51.385Z,11.10
2019-03-30T22:36:55.230Z,11.00
2019-03-30T22:38:59.073Z,10.90
2019-03-30T22:41:02.968Z,10.90
2019-03-30T22:43:06.867Z,10.90
2019-03-30T22:45:10.841Z,10.80
2019-03-30T22:47:14.706Z,10.90
2019-03-30T22:49:18.639Z,10.90
2019-03-30T22:51:22.504Z,10.90
2019-03-30T22:53:26.367Z,10.80
2019-03-30T22:55:30.279Z,10.80
2019-03-30T22:57:34.107Z,10.70
2019-03-30T22:59:38.013Z,10.70
2019-03-30T23:01:41.839Z,10.70
2019-03-30T23:03:45.771Z,10.60
2019-03-30T23:05:49.616Z,10.60
2019-03-30T23:07:53.447Z,10.50
2019-03-30T23:09:57.303Z,10.40
2019-03-30T23:12:01.311Z,10.40
2019-03-30T23:14:05.180Z,10.40
2019-03-30T23:16:09.125Z,10.40
2019-03-30T23:18:13.019Z,10.40
2019-03-30T23:20:21.158Z,10.40
2019-03-30T23:22:25.209Z,10.40
2019-03-30T23:24:29.427Z,10.30
2019-03-30T23:26:33.293Z,10.30
2019-03-30T23:28:37.191Z,10.30
2019-03-30T23:30:53.461Z,10.30
2019-03-30T23:32:46.534Z,10.20
2019-03-30T23:34:50.433Z,10.10
2019-03-30T23:36:54.269Z,10.00
2019-03-30T23:38:58.150Z,9.90
2019-03-30T23:41:01.992Z,9.90
2019-03-30T23:43:05.951Z,9.90
2019-03-30T23:45:09.835Z,9.80
2019-03-30T23:47:13.879Z,9.80
2019-03-30T23:49:17.885Z,9.70
2019-03-30T23:51:21.824Z,9.70
2019-03-30T23:53:25.849Z,9.60
2019-03-30T23:55:29.711Z,9.60
2019-03-30T23:57:33.549Z,9.60
2019-03-30T23:59:37.649Z,9.50
